Terminal Aerodrome Forecast
Issued by NWS

Current Version | Previous Version | Text Only | Print | Product List | Glossary On
Versions: 1 2 3 4 5 6 7 8 9 10 11 12 13 14 15 16 17 18
000
FTUS42 KMLB 052340
TAFSFB
TAF
KSFB 052340Z 0600/0624 VRB05KT P6SM -RA FEW030 SCT060 BKN100
      TEMPO 0600/0602 TSRA BKN060CB
     FM060400 12005KT P6SM FEW050 BKN250
     FM061400 19005KT P6SM SCT025 SCT250
     FM061900 17007KT P6SM VCTS SCT045CB BKN250=

USA.gov is the U.S. government's official web portal to all federal, state and local government web resources and services.